sensor_id;sensor_type;location;lat;lon;timestamp;temperature;humidity
21193;DHT22;10754;51.106;7.164;2023-07-20T00:01:57;22.40;99.90
21193;DHT22;10754;51.106;7.164;2023-07-20T00:04:22;22.40;99.90
21193;DHT22;10754;51.106;7.164;2023-07-20T00:06:48;22.40;99.90
21193;DHT22;10754;51.106;7.164;2023-07-20T00:09:13;22.30;99.90
21193;DHT22;10754;51.106;7.164;2023-07-20T00:11:39;22.30;99.90
21193;DHT22;10754;51.106;7.164;2023-07-20T00:14:05;22.30;99.90
21193;DHT22;10754;51.106;7.164;2023-07-20T00:16:31;22.30;99.90
21193;DHT22;10754;51.106;7.164;2023-07-20T00:18:56;22.20;99.90
21193;DHT22;10754;51.106;7.164;2023-07-20T00:21:22;22.20;99.90
21193;DHT22;10754;51.106;7.164;2023-07-20T00:23:48;22.10;99.90
21193;DHT22;10754;51.106;7.164;2023-07-20T00:26:13;22.10;99.90
21193;DHT22;10754;51.106;7.164;2023-07-20T00:28:39;22.10;99.90
21193;DHT22;10754;51.106;7.164;2023-07-20T00:31:04;22.10;99.90
21193;DHT22;10754;51.106;7.164;2023-07-20T00:33:30;22.00;99.90
21193;DHT22;10754;51.106;7.164;2023-07-20T00:35:55;22.00;99.90
21193;DHT22;10754;51.106;7.164;2023-07-20T00:38:21;22.00;99.90
21193;DHT22;10754;51.106;7.164;2023-07-20T00:40:47;22.00;99.90
21193;DHT22;10754;51.106;7.164;2023-07-20T00:43:13;21.90;99.90
21193;DHT22;10754;51.106;7.164;2023-07-20T00:45:40;21.90;99.90
21193;DHT22;10754;51.106;7.164;2023-07-20T00:48:06;21.90;99.90
21193;DHT22;10754;51.106;7.164;2023-07-20T00:50:32;21.90;99.90
21193;DHT22;10754;51.106;7.164;2023-07-20T00:52:59;21.90;99.90
21193;DHT22;10754;51.106;7.164;2023-07-20T00:55:25;21.80;99.90
21193;DHT22;10754;51.106;7.164;2023-07-20T00:57:51;21.80;99.90
21193;DHT22;10754;51.106;7.164;2023-07-20T01:00:17;21.80;99.90
21193;DHT22;10754;51.106;7.164;2023-07-20T01:02:44;21.80;99.90
21193;DHT22;10754;51.106;7.164;2023-07-20T01:05:10;21.80;99.90
21193;DHT22;10754;51.106;7.164;2023-07-20T01:08:03;21.70;99.90
21193;DHT22;10754;51.106;7.164;2023-07-20T01:10:41;21.80;99.90
21193;DHT22;10754;51.106;7.164;2023-07-20T01:13:10;21.70;99.90
21193;DHT22;10754;51.106;7.164;2023-07-20T01:15:36;21.70;99.90
21193;DHT22;10754;51.106;7.164;2023-07-20T01:18:01;21.70;99.90
21193;DHT22;10754;51.106;7.164;2023-07-20T01:20:31;21.70;99.90
21193;DHT22;10754;51.106;7.164;2023-07-20T01:31:30;21.70;99.90
21193;DHT22;10754;51.106;7.164;2023-07-20T01:33:58;21.70;99.90
21193;DHT22;10754;51.106;7.164;2023-07-20T01:36:28;21.60;99.90
21193;DHT22;10754;51.106;7.164;2023-07-20T01:38:54;21.60;99.90
21193;DHT22;10754;51.106;7.164;2023-07-20T01:41:21;21.60;99.90
21193;DHT22;10754;51.106;7.164;2023-07-20T01:43:47;21.60;99.90
21193;DHT22;10754;51.106;7.164;2023-07-20T01:46:12;21.60;99.90
21193;DHT22;10754;51.106;7.164;2023-07-20T01:48:38;21.60;99.90
21193;DHT22;10754;51.106;7.164;2023-07-20T01:51:03;21.60;99.90
21193;DHT22;10754;51.106;7.164;2023-07-20T01:53:29;21.60;99.90
21193;DHT22;10754;51.106;7.164;2023-07-20T01:55:55;21.60;99.90
21193;DHT22;10754;51.106;7.164;2023-07-20T01:58:21;21.60;99.90
21193;DHT22;10754;51.106;7.164;2023-07-20T02:00:46;21.60;99.90
21193;DHT22;10754;51.106;7.164;2023-07-20T02:03:12;21.70;99.90
21193;DHT22;10754;51.106;7.164;2023-07-20T02:05:38;21.60;99.90
21193;DHT22;10754;51.106;7.164;2023-07-20T02:08:04;21.60;99.90
21193;DHT22;10754;51.106;7.164;2023-07-20T02:10:29;21.60;99.90
21193;DHT22;10754;51.106;7.164;2023-07-20T02:12:55;21.60;99.90
21193;DHT22;10754;51.106;7.164;2023-07-20T02:15:21;21.60;99.90
21193;DHT22;10754;51.106;7.164;2023-07-20T02:17:46;21.60;99.90
21193;DHT22;10754;51.106;7.164;2023-07-20T02:20:12;21.60;99.90
21193;DHT22;10754;51.106;7.164;2023-07-20T02:22:39;21.60;99.90
21193;DHT22;10754;51.106;7.164;2023-07-20T02:25:05;21.60;99.90
21193;DHT22;10754;51.106;7.164;2023-07-20T02:27:32;21.60;99.90
21193;DHT22;10754;51.106;7.164;2023-07-20T02:29:58;21.50;99.90
21193;DHT22;10754;51.106;7.164;2023-07-20T02:32:24;21.50;99.90
21193;DHT22;10754;51.106;7.164;2023-07-20T02:34:49;21.50;99.90
21193;DHT22;10754;51.106;7.164;2023-07-20T02:37:16;21.50;99.90
21193;DHT22;10754;51.106;7.164;2023-07-20T02:39:41;21.50;99.90
21193;DHT22;10754;51.106;7.164;2023-07-20T02:42:07;21.50;99.90
21193;DHT22;10754;51.106;7.164;2023-07-20T02:44:32;21.40;99.90
21193;DHT22;10754;51.106;7.164;2023-07-20T02:46:58;21.50;99.90
21193;DHT22;10754;51.106;7.164;2023-07-20T02:49:24;21.50;99.90
21193;DHT22;10754;51.106;7.164;2023-07-20T02:51:49;21.50;99.90
21193;DHT22;10754;51.106;7.164;2023-07-20T02:54:15;21.50;99.90
21193;DHT22;10754;51.106;7.164;2023-07-20T02:56:40;21.40;99.90
21193;DHT22;10754;51.106;7.164;2023-07-20T02:59:06;21.50;99.90
21193;DHT22;10754;51.106;7.164;2023-07-20T03:01:31;21.50;99.90
21193;DHT22;10754;51.106;7.164;2023-07-20T03:03:57;21.50;99.90
21193;DHT22;10754;51.106;7.164;2023-07-20T03:06:23;21.40;99.90
21193;DHT22;10754;51.106;7.164;2023-07-20T03:08:48;21.40;99.90
21193;DHT22;10754;51.106;7.164;2023-07-20T03:11:17;21.50;99.90
21193;DHT22;10754;51.106;7.164;2023-07-20T03:13:44;21.40;99.90
21193;DHT22;10754;51.106;7.164;2023-07-20T03:16:11;21.40;99.90
21193;DHT22;10754;51.106;7.164;2023-07-20T03:18:40;21.40;99.90
21193;DHT22;10754;51.106;7.164;2023-07-20T03:21:06;21.50;99.90
21193;DHT22;10754;51.106;7.164;2023-07-20T03:23:32;21.50;99.90
21193;DHT22;10754;51.106;7.164;2023-07-20T03:25:58;21.40;99.90
21193;DHT22;10754;51.106;7.164;2023-07-20T03:28:23;21.40;99.90
21193;DHT22;10754;51.106;7.164;2023-07-20T03:30:56;21.40;99.90
21193;DHT22;10754;51.106;7.164;2023-07-20T03:33:24;21.50;99.90
21193;DHT22;10754;51.106;7.164;2023-07-20T03:35:50;21.40;99.90
21193;DHT22;10754;51.106;7.164;2023-07-20T03:38:15;21.40;99.90
21193;DHT22;10754;51.106;7.164;2023-07-20T03:40:49;21.40;99.90
21193;DHT22;10754;51.106;7.164;2023-07-20T03:43:15;21.50;99.90
21193;DHT22;10754;51.106;7.164;2023-07-20T03:45:40;21.40;99.90
21193;DHT22;10754;51.106;7.164;2023-07-20T03:48:06;21.50;99.90
21193;DHT22;10754;51.106;7.164;2023-07-20T03:50:31;21.50;99.90
21193;DHT22;10754;51.106;7.164;2023-07-20T03:52:57;21.40;99.90
21193;DHT22;10754;51.106;7.164;2023-07-20T03:55:23;21.50;99.90
21193;DHT22;10754;51.106;7.164;2023-07-20T03:57:48;21.40;99.90
21193;DHT22;10754;51.106;7.164;2023-07-20T04:00:16;21.40;99.90
21193;DHT22;10754;51.106;7.164;2023-07-20T04:02:42;21.50;99.90
21193;DHT22;10754;51.106;7.164;2023-07-20T04:05:08;21.50;99.90
21193;DHT22;10754;51.106;7.164;2023-07-20T04:07:33;21.50;99.90
21193;DHT22;10754;51.106;7.164;2023-07-20T04:09:59;21.60;99.90
21193;DHT22;10754;51.106;7.164;2023-07-20T04:12:24;21.60;99.90
21193;DHT22;10754;51.106;7.164;2023-07-20T04:14:50;21.50;99.90
21193;DHT22;10754;51.106;7.164;2023-07-20T04:17:15;21.50;99.90
21193;DHT22;10754;51.106;7.164;2023-07-20T04:19:40;21.50;99.90
21193;DHT22;10754;51.106;7.164;2023-07-20T04:22:06;21.50;99.90
21193;DHT22;10754;51.106;7.164;2023-07-20T04:24:31;21.60;99.90
21193;DHT22;10754;51.106;7.164;2023-07-20T04:26:57;21.60;99.90
21193;DHT22;10754;51.106;7.164;2023-07-20T04:29:22;21.60;99.90
21193;DHT22;10754;51.106;7.164;2023-07-20T04:31:48;21.60;99.90
21193;DHT22;10754;51.106;7.164;2023-07-20T04:34:13;21.50;99.90
21193;DHT22;10754;51.106;7.164;2023-07-20T04:36:39;21.40;99.90
21193;DHT22;10754;51.106;7.164;2023-07-20T04:39:04;21.50;99.90
21193;DHT22;10754;51.106;7.164;2023-07-20T04:41:30;21.50;99.90
21193;DHT22;10754;51.106;7.164;2023-07-20T04:43:56;21.60;99.90
21193;DHT22;10754;51.106;7.164;2023-07-20T04:46:21;21.60;99.90
21193;DHT22;10754;51.106;7.164;2023-07-20T04:48:47;21.60;99.90
21193;DHT22;10754;51.106;7.164;2023-07-20T04:51:13;21.60;99.90
21193;DHT22;10754;51.106;7.164;2023-07-20T04:53:39;21.60;99.90
21193;DHT22;10754;51.106;7.164;2023-07-20T04:56:04;21.60;99.90
21193;DHT22;10754;51.106;7.164;2023-07-20T04:58:30;21.60;99.90
21193;DHT22;10754;51.106;7.164;2023-07-20T05:00:55;21.60;99.90
21193;DHT22;10754;51.106;7.164;2023-07-20T05:03:21;21.60;99.90
21193;DHT22;10754;51.106;7.164;2023-07-20T05:05:49;21.70;99.90
21193;DHT22;10754;51.106;7.164;2023-07-20T05:08:15;21.70;99.90
21193;DHT22;10754;51.106;7.164;2023-07-20T05:10:41;21.70;99.90
21193;DHT22;10754;51.106;7.164;2023-07-20T05:13:07;21.70;99.90
21193;DHT22;10754;51.106;7.164;2023-07-20T05:15:33;21.70;99.90
21193;DHT22;10754;51.106;7.164;2023-07-20T05:18:00;21.70;99.90
21193;DHT22;10754;51.106;7.164;2023-07-20T05:20:25;21.70;1.00
21193;DHT22;10754;51.106;7.164;2023-07-20T05:22:51;21.80;99.90
21193;DHT22;10754;51.106;7.164;2023-07-20T05:25:18;21.80;99.90
21193;DHT22;10754;51.106;7.164;2023-07-20T05:27:45;21.80;99.90
21193;DHT22;10754;51.106;7.164;2023-07-20T05:30:11;21.80;99.90
21193;DHT22;10754;51.106;7.164;2023-07-20T05:32:37;21.80;99.90
21193;DHT22;10754;51.106;7.164;2023-07-20T05:35:03;21.90;99.90
21193;DHT22;10754;51.106;7.164;2023-07-20T05:37:28;21.80;99.90
21193;DHT22;10754;51.106;7.164;2023-07-20T05:39:54;21.80;99.90
21193;DHT22;10754;51.106;7.164;2023-07-20T05:42:19;21.80;99.90
21193;DHT22;10754;51.106;7.164;2023-07-20T05:44:45;21.90;99.90
21193;DHT22;10754;51.106;7.164;2023-07-20T05:47:12;22.00;99.90
21193;DHT22;10754;51.106;7.164;2023-07-20T05:49:38;22.00;99.90
21193;DHT22;10754;51.106;7.164;2023-07-20T05:52:03;22.00;99.90
21193;DHT22;10754;51.106;7.164;2023-07-20T05:54:29;22.00;99.90
21193;DHT22;10754;51.106;7.164;2023-07-20T05:56:55;22.00;99.90
21193;DHT22;10754;51.106;7.164;2023-07-20T05:59:20;22.10;99.90
21193;DHT22;10754;51.106;7.164;2023-07-20T06:01:46;22.00;99.90
21193;DHT22;10754;51.106;7.164;2023-07-20T06:04:15;22.00;99.90
21193;DHT22;10754;51.106;7.164;2023-07-20T06:06:40;22.10;99.90
21193;DHT22;10754;51.106;7.164;2023-07-20T06:09:06;22.00;99.90
21193;DHT22;10754;51.106;7.164;2023-07-20T06:11:35;22.10;99.90
21193;DHT22;10754;51.106;7.164;2023-07-20T06:14:01;22.10;99.90
21193;DHT22;10754;51.106;7.164;2023-07-20T06:16:26;22.10;99.90
21193;DHT22;10754;51.106;7.164;2023-07-20T06:18:52;22.10;99.90
21193;DHT22;10754;51.106;7.164;2023-07-20T06:21:17;22.10;99.90
21193;DHT22;10754;51.106;7.164;2023-07-20T06:23:42;22.10;99.90
21193;DHT22;10754;51.106;7.164;2023-07-20T06:26:08;22.10;99.90
21193;DHT22;10754;51.106;7.164;2023-07-20T06:28:34;22.10;99.90
21193;DHT22;10754;51.106;7.164;2023-07-20T06:31:03;22.10;99.90
21193;DHT22;10754;51.106;7.164;2023-07-20T06:33:29;22.10;99.90
21193;DHT22;10754;51.106;7.164;2023-07-20T06:35:54;22.10;99.90
21193;DHT22;10754;51.106;7.164;2023-07-20T06:38:20;22.20;99.90
21193;DHT22;10754;51.106;7.164;2023-07-20T06:40:46;22.30;99.90
21193;DHT22;10754;51.106;7.164;2023-07-20T06:43:12;22.30;99.90
21193;DHT22;10754;51.106;7.164;2023-07-20T06:45:37;22.30;99.90
21193;DHT22;10754;51.106;7.164;2023-07-20T06:48:03;22.40;99.90
21193;DHT22;10754;51.106;7.164;2023-07-20T06:50:29;22.40;99.90
21193;DHT22;10754;51.106;7.164;2023-07-20T06:52:54;22.30;99.90
21193;DHT22;10754;51.106;7.164;2023-07-20T06:55:20;22.30;99.90
21193;DHT22;10754;51.106;7.164;2023-07-20T06:57:46;22.40;99.90
21193;DHT22;10754;51.106;7.164;2023-07-20T07:00:12;22.50;99.90
21193;DHT22;10754;51.106;7.164;2023-07-20T07:02:38;22.50;99.90
21193;DHT22;10754;51.106;7.164;2023-07-20T07:05:04;22.50;99.90
21193;DHT22;10754;51.106;7.164;2023-07-20T07:07:29;22.50;99.90
21193;DHT22;10754;51.106;7.164;2023-07-20T07:09:55;22.60;99.90
21193;DHT22;10754;51.106;7.164;2023-07-20T07:12:20;22.60;99.90
21193;DHT22;10754;51.106;7.164;2023-07-20T07:14:46;22.70;99.90
21193;DHT22;10754;51.106;7.164;2023-07-20T07:17:11;22.60;99.90
21193;DHT22;10754;51.106;7.164;2023-07-20T07:19:37;22.70;99.90
21193;DHT22;10754;51.106;7.164;2023-07-20T07:22:04;22.60;99.90
21193;DHT22;10754;51.106;7.164;2023-07-20T07:24:29;22.60;99.90
21193;DHT22;10754;51.106;7.164;2023-07-20T07:26:59;22.70;99.90
21193;DHT22;10754;51.106;7.164;2023-07-20T07:29:24;22.80;99.90
21193;DHT22;10754;51.106;7.164;2023-07-20T07:31:51;22.60;99.90
21193;DHT22;10754;51.106;7.164;2023-07-20T07:34:16;22.60;99.90
21193;DHT22;10754;51.106;7.164;2023-07-20T07:36:42;22.70;99.90
21193;DHT22;10754;51.106;7.164;2023-07-20T07:39:08;22.80;99.90
21193;DHT22;10754;51.106;7.164;2023-07-20T07:41:34;22.90;99.90
21193;DHT22;10754;51.106;7.164;2023-07-20T07:44:00;22.90;99.90
21193;DHT22;10754;51.106;7.164;2023-07-20T07:46:25;22.90;99.90
21193;DHT22;10754;51.106;7.164;2023-07-20T07:48:51;22.90;99.90
21193;DHT22;10754;51.106;7.164;2023-07-20T07:51:16;22.90;99.90
21193;DHT22;10754;51.106;7.164;2023-07-20T07:53:42;22.90;99.90
21193;DHT22;10754;51.106;7.164;2023-07-20T07:56:09;22.90;99.90
21193;DHT22;10754;51.106;7.164;2023-07-20T07:58:34;22.90;99.90
21193;DHT22;10754;51.106;7.164;2023-07-20T08:01:00;23.10;99.90
21193;DHT22;10754;51.106;7.164;2023-07-20T08:03:26;22.90;99.90
21193;DHT22;10754;51.106;7.164;2023-07-20T08:05:53;22.90;99.90
21193;DHT22;10754;51.106;7.164;2023-07-20T08:08:20;22.90;99.90
21193;DHT22;10754;51.106;7.164;2023-07-20T08:10:46;22.60;99.90
21193;DHT22;10754;51.106;7.164;2023-07-20T08:13:12;22.80;99.90
21193;DHT22;10754;51.106;7.164;2023-07-20T08:15:38;22.90;99.90
21193;DHT22;10754;51.106;7.164;2023-07-20T08:18:03;23.00;99.90
21193;DHT22;10754;51.106;7.164;2023-07-20T08:20:29;23.00;99.90
21193;DHT22;10754;51.106;7.164;2023-07-20T08:22:55;22.90;99.90
21193;DHT22;10754;51.106;7.164;2023-07-20T08:25:21;23.00;99.90
21193;DHT22;10754;51.106;7.164;2023-07-20T08:27:47;23.10;99.90
21193;DHT22;10754;51.106;7.164;2023-07-20T08:30:13;23.20;99.90
21193;DHT22;10754;51.106;7.164;2023-07-20T08:32:38;23.10;99.90
21193;DHT22;10754;51.106;7.164;2023-07-20T08:35:05;23.10;99.90
21193;DHT22;10754;51.106;7.164;2023-07-20T08:37:31;23.20;99.90
21193;DHT22;10754;51.106;7.164;2023-07-20T08:39:56;23.20;99.90
21193;DHT22;10754;51.106;7.164;2023-07-20T08:42:22;23.10;99.90
21193;DHT22;10754;51.106;7.164;2023-07-20T08:44:48;23.10;99.90
21193;DHT22;10754;51.106;7.164;2023-07-20T08:47:16;23.10;99.90
21193;DHT22;10754;51.106;7.164;2023-07-20T08:49:41;23.20;99.90
21193;DHT22;10754;51.106;7.164;2023-07-20T08:52:08;23.20;99.90
21193;DHT22;10754;51.106;7.164;2023-07-20T08:54:34;23.20;99.90
21193;DHT22;10754;51.106;7.164;2023-07-20T08:57:05;23.10;99.90
21193;DHT22;10754;51.106;7.164;2023-07-20T08:59:31;23.20;99.90
21193;DHT22;10754;51.106;7.164;2023-07-20T09:01:58;23.20;99.90
21193;DHT22;10754;51.106;7.164;2023-07-20T09:04:24;23.20;99.90
21193;DHT22;10754;51.106;7.164;2023-07-20T09:06:50;23.40;99.90
21193;DHT22;10754;51.106;7.164;2023-07-20T09:09:16;23.40;99.90
21193;DHT22;10754;51.106;7.164;2023-07-20T09:11:42;23.30;99.90
21193;DHT22;10754;51.106;7.164;2023-07-20T09:14:09;23.30;99.90
21193;DHT22;10754;51.106;7.164;2023-07-20T09:16:48;23.30;99.90
21193;DHT22;10754;51.106;7.164;2023-07-20T09:19:17;23.50;99.90
21193;DHT22;10754;51.106;7.164;2023-07-20T09:21:50;23.40;99.90
21193;DHT22;10754;51.106;7.164;2023-07-20T09:24:18;23.60;99.90
21193;DHT22;10754;51.106;7.164;2023-07-20T09:26:45;23.60;99.90
21193;DHT22;10754;51.106;7.164;2023-07-20T09:29:11;23.60;99.90
21193;DHT22;10754;51.106;7.164;2023-07-20T09:31:37;23.60;99.90
21193;DHT22;10754;51.106;7.164;2023-07-20T09:34:04;23.70;99.90
21193;DHT22;10754;51.106;7.164;2023-07-20T09:36:33;23.80;99.90
21193;DHT22;10754;51.106;7.164;2023-07-20T09:38:59;23.80;99.90
21193;DHT22;10754;51.106;7.164;2023-07-20T09:41:25;23.80;99.90
21193;DHT22;10754;51.106;7.164;2023-07-20T09:43:52;23.80;99.90
21193;DHT22;10754;51.106;7.164;2023-07-20T09:46:18;23.90;99.90
21193;DHT22;10754;51.106;7.164;2023-07-20T09:48:52;23.90;99.90
21193;DHT22;10754;51.106;7.164;2023-07-20T09:51:24;23.90;99.90
21193;DHT22;10754;51.106;7.164;2023-07-20T09:53:52;23.90;99.90
21193;DHT22;10754;51.106;7.164;2023-07-20T09:56:21;23.90;99.90
21193;DHT22;10754;51.106;7.164;2023-07-20T09:58:47;23.90;99.90
21193;DHT22;10754;51.106;7.164;2023-07-20T10:01:15;24.10;99.90
21193;DHT22;10754;51.106;7.164;2023-07-20T10:03:45;24.00;99.90
21193;DHT22;10754;51.106;7.164;2023-07-20T10:06:15;24.00;99.90
21193;DHT22;10754;51.106;7.164;2023-07-20T10:08:46;23.90;99.90
21193;DHT22;10754;51.106;7.164;2023-07-20T10:11:15;23.90;99.90
21193;DHT22;10754;51.106;7.164;2023-07-20T10:13:43;24.00;99.90
21193;DHT22;10754;51.106;7.164;2023-07-20T10:16:15;24.20;99.90
21193;DHT22;10754;51.106;7.164;2023-07-20T10:19:01;24.20;99.90
21193;DHT22;10754;51.106;7.164;2023-07-20T10:21:27;24.30;99.90
21193;DHT22;10754;51.106;7.164;2023-07-20T10:23:55;24.30;99.90
21193;DHT22;10754;51.106;7.164;2023-07-20T10:26:21;24.50;99.90
21193;DHT22;10754;51.106;7.164;2023-07-20T10:28:47;24.40;99.90
21193;DHT22;10754;51.106;7.164;2023-07-20T10:31:13;24.60;99.90
21193;DHT22;10754;51.106;7.164;2023-07-20T10:33:39;24.70;99.90
21193;DHT22;10754;51.106;7.164;2023-07-20T10:36:06;24.70;99.90
21193;DHT22;10754;51.106;7.164;2023-07-20T10:38:43;24.90;99.90
21193;DHT22;10754;51.106;7.164;2023-07-20T10:41:39;25.00;99.90
21193;DHT22;10754;51.106;7.164;2023-07-20T10:44:07;25.10;99.90
21193;DHT22;10754;51.106;7.164;2023-07-20T10:49:09;25.40;99.90
21193;DHT22;10754;51.106;7.164;2023-07-20T10:51:46;25.80;99.90
21193;DHT22;10754;51.106;7.164;2023-07-20T10:56:41;26.20;99.90
21193;DHT22;10754;51.106;7.164;2023-07-20T11:01:49;26.30;99.90
21193;DHT22;10754;51.106;7.164;2023-07-20T11:04:15;26.30;99.90
21193;DHT22;10754;51.106;7.164;2023-07-20T11:06:44;26.50;99.90
21193;DHT22;10754;51.106;7.164;2023-07-20T11:09:14;26.50;99.90
21193;DHT22;10754;51.106;7.164;2023-07-20T11:11:44;26.50;99.90
21193;DHT22;10754;51.106;7.164;2023-07-20T11:14:20;26.70;99.90
21193;DHT22;10754;51.106;7.164;2023-07-20T11:16:48;27.10;99.90
21193;DHT22;10754;51.106;7.164;2023-07-20T11:19:21;26.80;99.90
21193;DHT22;10754;51.106;7.164;2023-07-20T11:21:56;26.60;99.90
21193;DHT22;10754;51.106;7.164;2023-07-20T11:24:22;26.40;99.90
21193;DHT22;10754;51.106;7.164;2023-07-20T11:26:52;26.30;99.90
21193;DHT22;10754;51.106;7.164;2023-07-20T11:29:20;26.10;99.90
21193;DHT22;10754;51.106;7.164;2023-07-20T11:31:47;26.00;99.90
21193;DHT22;10754;51.106;7.164;2023-07-20T11:34:17;26.00;99.90
21193;DHT22;10754;51.106;7.164;2023-07-20T11:36:44;26.40;99.90
21193;DHT22;10754;51.106;7.164;2023-07-20T11:39:13;26.70;99.90
21193;DHT22;10754;51.106;7.164;2023-07-20T11:41:43;26.80;99.90
21193;DHT22;10754;51.106;7.164;2023-07-20T11:44:10;26.90;99.90
21193;DHT22;10754;51.106;7.164;2023-07-20T11:46:39;27.20;99.90
21193;DHT22;10754;51.106;7.164;2023-07-20T11:49:05;27.30;99.90
21193;DHT22;10754;51.106;7.164;2023-07-20T11:51:31;27.50;99.90
21193;DHT22;10754;51.106;7.164;2023-07-20T11:53:57;27.30;99.90
21193;DHT22;10754;51.106;7.164;2023-07-20T11:56:24;27.10;99.90
21193;DHT22;10754;51.106;7.164;2023-07-20T11:58:53;26.90;99.90
21193;DHT22;10754;51.106;7.164;2023-07-20T12:01:19;26.60;99.90
21193;DHT22;10754;51.106;7.164;2023-07-20T12:03:47;26.40;99.90
21193;DHT22;10754;51.106;7.164;2023-07-20T12:06:13;26.30;99.90
21193;DHT22;10754;51.106;7.164;2023-07-20T12:08:43;26.20;99.90
21193;DHT22;10754;51.106;7.164;2023-07-20T12:11:08;26.10;99.90
21193;DHT22;10754;51.106;7.164;2023-07-20T12:13:44;26.00;99.90
21193;DHT22;10754;51.106;7.164;2023-07-20T12:16:16;25.90;99.90
21193;DHT22;10754;51.106;7.164;2023-07-20T12:18:45;25.90;99.90
21193;DHT22;10754;51.106;7.164;2023-07-20T12:21:11;26.00;99.90
21193;DHT22;10754;51.106;7.164;2023-07-20T12:23:40;25.90;99.90
21193;DHT22;10754;51.106;7.164;2023-07-20T12:26:07;26.00;99.90
21193;DHT22;10754;51.106;7.164;2023-07-20T12:28:38;26.00;99.90
21193;DHT22;10754;51.106;7.164;2023-07-20T12:31:04;25.90;99.90
21193;DHT22;10754;51.106;7.164;2023-07-20T12:33:29;25.80;99.90
21193;DHT22;10754;51.106;7.164;2023-07-20T12:35:55;25.70;99.90
21193;DHT22;10754;51.106;7.164;2023-07-20T12:38:23;25.60;99.90
21193;DHT22;10754;51.106;7.164;2023-07-20T12:40:49;25.60;99.90
21193;DHT22;10754;51.106;7.164;2023-07-20T12:43:14;25.60;99.90
21193;DHT22;10754;51.106;7.164;2023-07-20T12:45:40;25.50;99.90
21193;DHT22;10754;51.106;7.164;2023-07-20T12:48:06;25.50;99.90
21193;DHT22;10754;51.106;7.164;2023-07-20T12:50:32;25.50;99.90
21193;DHT22;10754;51.106;7.164;2023-07-20T12:52:57;25.80;99.90
21193;DHT22;10754;51.106;7.164;2023-07-20T12:55:23;25.80;99.90
21193;DHT22;10754;51.106;7.164;2023-07-20T12:57:48;26.00;99.90
21193;DHT22;10754;51.106;7.164;2023-07-20T13:00:15;27.90;99.90
21193;DHT22;10754;51.106;7.164;2023-07-20T13:02:41;29.70;99.90
21193;DHT22;10754;51.106;7.164;2023-07-20T13:05:07;29.50;99.90
21193;DHT22;10754;51.106;7.164;2023-07-20T13:07:35;28.80;99.90
21193;DHT22;10754;51.106;7.164;2023-07-20T13:10:01;28.20;99.90
21193;DHT22;10754;51.106;7.164;2023-07-20T13:12:28;27.80;99.90
21193;DHT22;10754;51.106;7.164;2023-07-20T13:14:55;27.40;99.90
21193;DHT22;10754;51.106;7.164;2023-07-20T13:17:22;27.00;99.90
21193;DHT22;10754;51.106;7.164;2023-07-20T13:19:47;26.80;99.90
21193;DHT22;10754;51.106;7.164;2023-07-20T13:22:13;26.50;99.90
21193;DHT22;10754;51.106;7.164;2023-07-20T13:24:40;26.40;99.90
21193;DHT22;10754;51.106;7.164;2023-07-20T13:27:06;26.30;99.90
21193;DHT22;10754;51.106;7.164;2023-07-20T13:29:31;26.30;99.90
21193;DHT22;10754;51.106;7.164;2023-07-20T13:31:58;26.20;99.90
21193;DHT22;10754;51.106;7.164;2023-07-20T13:34:23;26.20;99.90
21193;DHT22;10754;51.106;7.164;2023-07-20T13:36:49;26.20;99.90
21193;DHT22;10754;51.106;7.164;2023-07-20T13:39:14;26.10;99.90
21193;DHT22;10754;51.106;7.164;2023-07-20T13:41:40;26.10;99.90
21193;DHT22;10754;51.106;7.164;2023-07-20T13:44:06;26.20;99.90
21193;DHT22;10754;51.106;7.164;2023-07-20T13:46:31;26.30;99.90
21193;DHT22;10754;51.106;7.164;2023-07-20T13:48:57;26.40;99.90
21193;DHT22;10754;51.106;7.164;2023-07-20T13:51:22;26.50;99.90
21193;DHT22;10754;51.106;7.164;2023-07-20T13:53:48;26.40;99.90
21193;DHT22;10754;51.106;7.164;2023-07-20T13:56:14;26.40;99.90
21193;DHT22;10754;51.106;7.164;2023-07-20T13:58:39;26.20;99.90
21193;DHT22;10754;51.106;7.164;2023-07-20T14:01:05;26.30;99.90
21193;DHT22;10754;51.106;7.164;2023-07-20T14:03:30;26.60;99.90
21193;DHT22;10754;51.106;7.164;2023-07-20T14:05:56;26.60;99.90
21193;DHT22;10754;51.106;7.164;2023-07-20T14:08:22;28.50;99.90
21193;DHT22;10754;51.106;7.164;2023-07-20T14:10:48;28.60;99.90
21193;DHT22;10754;51.106;7.164;2023-07-20T14:13:13;28.30;99.90
21193;DHT22;10754;51.106;7.164;2023-07-20T14:15:39;29.50;99.90
21193;DHT22;10754;51.106;7.164;2023-07-20T14:18:05;28.80;99.90
21193;DHT22;10754;51.106;7.164;2023-07-20T14:20:30;28.20;99.90
21193;DHT22;10754;51.106;7.164;2023-07-20T14:22:56;27.90;99.90
21193;DHT22;10754;51.106;7.164;2023-07-20T14:25:21;27.50;99.90
21193;DHT22;10754;51.106;7.164;2023-07-20T14:27:47;27.50;99.90
21193;DHT22;10754;51.106;7.164;2023-07-20T14:30:13;27.50;99.90
21193;DHT22;10754;51.106;7.164;2023-07-20T14:32:40;27.60;99.90
21193;DHT22;10754;51.106;7.164;2023-07-20T14:35:06;27.40;99.90
21193;DHT22;10754;51.106;7.164;2023-07-20T14:37:32;27.50;99.90
21193;DHT22;10754;51.106;7.164;2023-07-20T14:39:58;27.80;99.90
21193;DHT22;10754;51.106;7.164;2023-07-20T14:42:24;28.10;99.90
21193;DHT22;10754;51.106;7.164;2023-07-20T14:44:49;28.00;99.90
21193;DHT22;10754;51.106;7.164;2023-07-20T14:47:15;27.60;99.90
21193;DHT22;10754;51.106;7.164;2023-07-20T14:49:40;27.30;99.90
21193;DHT22;10754;51.106;7.164;2023-07-20T14:52:06;27.20;99.90
21193;DHT22;10754;51.106;7.164;2023-07-20T14:54:32;27.10;99.90
21193;DHT22;10754;51.106;7.164;2023-07-20T14:56:57;27.20;99.90
21193;DHT22;10754;51.106;7.164;2023-07-20T14:59:23;27.10;99.90
21193;DHT22;10754;51.106;7.164;2023-07-20T15:01:48;26.90;99.90
21193;DHT22;10754;51.106;7.164;2023-07-20T15:04:14;26.80;99.90
21193;DHT22;10754;51.106;7.164;2023-07-20T15:06:40;26.80;99.90
21193;DHT22;10754;51.106;7.164;2023-07-20T15:09:06;26.80;99.90
21193;DHT22;10754;51.106;7.164;2023-07-20T15:11:33;26.80;99.90
21193;DHT22;10754;51.106;7.164;2023-07-20T15:13:58;26.90;99.90
21193;DHT22;10754;51.106;7.164;2023-07-20T15:16:24;26.90;99.90
21193;DHT22;10754;51.106;7.164;2023-07-20T15:18:49;26.90;99.90
21193;DHT22;10754;51.106;7.164;2023-07-20T15:21:15;26.90;99.90
21193;DHT22;10754;51.106;7.164;2023-07-20T15:23:41;26.90;99.90
21193;DHT22;10754;51.106;7.164;2023-07-20T15:26:07;26.80;99.90
21193;DHT22;10754;51.106;7.164;2023-07-20T15:28:33;26.70;99.90
21193;DHT22;10754;51.106;7.164;2023-07-20T15:31:03;26.60;99.90
21193;DHT22;10754;51.106;7.164;2023-07-20T15:33:29;26.60;99.90
21193;DHT22;10754;51.106;7.164;2023-07-20T15:35:55;26.60;99.90
21193;DHT22;10754;51.106;7.164;2023-07-20T15:38:21;26.60;99.90
21193;DHT22;10754;51.106;7.164;2023-07-20T15:40:47;26.50;99.90
21193;DHT22;10754;51.106;7.164;2023-07-20T15:43:15;26.40;99.90